createdAt,value
2022-09-03T00:02:31.858Z,19.32
2022-09-03T00:10:36.694Z,19.34
2022-09-03T00:13:10.537Z,19.53
2022-09-03T00:15:40.904Z,19.60
2022-09-03T00:18:20.183Z,19.89
2022-09-03T00:20:56.195Z,19.91
2022-09-03T00:23:28.980Z,19.95
2022-09-03T00:28:50.415Z,20.03
2022-09-03T00:31:30.968Z,20.04
2022-09-03T00:34:16.213Z,20.10
2022-09-03T00:36:46.153Z,20.16
2022-09-03T00:39:19.853Z,20.07
2022-09-03T00:45:39.809Z,19.99
2022-09-03T00:51:36.599Z,20.12
2022-09-03T01:02:48.071Z,20.06
2022-09-03T01:46:40.954Z,20.66
2022-09-03T01:49:40.148Z,20.74
2022-09-03T01:52:28.734Z,20.81
2022-09-03T01:55:34.209Z,20.56
2022-09-03T01:58:33.895Z,20.45
2022-09-03T02:01:18.243Z,20.50
2022-09-03T02:03:48.345Z,20.33
2022-09-03T02:06:16.329Z,20.39
2022-09-03T02:08:43.876Z,20.64
2022-09-03T02:11:11.342Z,20.63
2022-09-03T02:13:46.163Z,20.65
2022-09-03T02:16:21.012Z,20.67
2022-09-03T02:18:55.626Z,20.60
2022-09-03T02:21:25.860Z,20.69
2022-09-03T02:23:53.859Z,20.73
2022-09-03T02:26:25.488Z,20.57
2022-09-03T02:28:55.439Z,20.64
2022-09-03T02:31:22.805Z,20.50
2022-09-03T02:33:52.318Z,20.34
2022-09-03T02:36:29.943Z,20.43
2022-09-03T02:38:57.737Z,20.61
2022-09-03T02:41:27.302Z,20.55
2022-09-03T02:44:08.573Z,20.27
2022-09-03T02:46:45.451Z,20.07
2022-09-03T02:49:12.798Z,19.96
2022-09-03T02:51:45.009Z,20.15
2022-09-03T02:54:16.718Z,20.17
2022-09-03T02:56:48.337Z,19.98
2022-09-03T02:59:17.100Z,19.83
2022-09-03T03:01:46.480Z,19.90
2022-09-03T03:04:15.262Z,19.92
2022-09-03T03:06:42.515Z,19.72
2022-09-03T03:09:14.882Z,19.36
2022-09-03T03:11:42.162Z,19.33
2022-09-03T03:14:09.813Z,19.15
2022-09-03T03:16:37.450Z,19.24
2022-09-03T03:19:04.822Z,19.17
2022-09-03T03:21:32.576Z,19.07
2022-09-03T03:24:02.853Z,18.98
2022-09-03T03:26:30.570Z,18.98
2022-09-03T03:36:48.134Z,19.10
2022-09-03T03:41:52.635Z,19.05
2022-09-03T03:44:20.241Z,18.89
2022-09-03T03:49:24.619Z,18.88
2022-09-03T04:02:19.942Z,19.07
2022-09-03T04:07:23.839Z,18.89
2022-09-03T04:12:27.980Z,19.09
2022-09-03T04:17:32.737Z,19.34
2022-09-03T04:22:38.717Z,19.48
2022-09-03T04:25:06.625Z,19.32
2022-09-03T04:27:33.993Z,19.26
2022-09-03T04:30:01.203Z,19.36
2022-09-03T04:32:50.239Z,19.40
2022-09-03T04:35:22.592Z,19.71
2022-09-03T04:37:50.301Z,19.48
2022-09-03T04:40:18.176Z,19.44
2022-09-03T04:42:45.508Z,19.63
2022-09-03T04:45:18.512Z,19.63
2022-09-03T04:50:35.649Z,19.51
2022-09-03T04:53:08.193Z,19.43
2022-09-03T04:55:38.259Z,19.33
2022-09-03T04:58:07.949Z,19.23
2022-09-03T05:00:37.686Z,19.42
2022-09-03T05:05:33.750Z,19.67
2022-09-03T05:08:02.493Z,19.91
2022-09-03T05:10:30.950Z,19.89
2022-09-03T05:13:02.556Z,19.80
2022-09-03T05:15:33.888Z,19.87
2022-09-03T05:18:04.699Z,19.83
2022-09-03T05:20:32.938Z,19.87
2022-09-03T05:23:05.069Z,20.00
2022-09-03T05:25:32.837Z,20.20
2022-09-03T05:28:01.972Z,20.16
2022-09-03T05:30:29.970Z,20.18
2022-09-03T05:32:57.711Z,20.44
2022-09-03T05:35:30.075Z,20.43
2022-09-03T05:37:57.738Z,20.62
2022-09-03T05:40:24.996Z,20.73
2022-09-03T05:42:58.495Z,20.87
2022-09-03T05:45:25.988Z,21.05
2022-09-03T05:47:53.513Z,21.08
2022-09-03T05:50:20.705Z,21.29
2022-09-03T05:52:53.121Z,21.46
2022-09-03T05:55:20.551Z,21.51
2022-09-03T05:57:52.829Z,21.79
2022-09-03T06:00:21.095Z,22.12
2022-09-03T06:02:53.576Z,22.17
2022-09-03T06:05:21.213Z,22.39
2022-09-03T06:07:49.582Z,22.11
2022-09-03T06:10:18.181Z,21.92
2022-09-03T06:12:52.363Z,22.03
2022-09-03T06:15:19.820Z,21.82
2022-09-03T06:17:47.398Z,21.70
2022-09-03T06:20:15.247Z,21.77
2022-09-03T06:22:43.456Z,22.09
2022-09-03T06:25:11.407Z,22.11
2022-09-03T06:27:38.648Z,22.29
2022-09-03T06:30:07.369Z,22.34
2022-09-03T06:32:35.003Z,22.54
2022-09-03T06:35:02.319Z,22.56
2022-09-03T06:37:29.697Z,22.38
2022-09-03T06:39:57.061Z,22.30
2022-09-03T06:42:24.544Z,22.47
2022-09-03T06:44:51.940Z,22.71
2022-09-03T06:47:19.618Z,22.75
2022-09-03T06:49:46.944Z,22.62
2022-09-03T06:52:14.220Z,22.64
2022-09-03T06:54:42.357Z,22.65
2022-09-03T06:57:09.583Z,22.66
2022-09-03T06:59:36.869Z,22.50
2022-09-03T07:02:04.351Z,22.94
2022-09-03T07:04:34.678Z,22.98
2022-09-03T07:07:04.536Z,23.10
2022-09-03T07:09:36.151Z,23.23
2022-09-03T07:12:03.549Z,23.54
2022-09-03T07:14:30.809Z,24.01
2022-09-03T07:16:59.039Z,24.38
2022-09-03T07:19:26.522Z,24.47
2022-09-03T07:21:53.958Z,24.38
2022-09-03T07:24:22.399Z,24.57
2022-09-03T07:26:51.447Z,24.58
2022-09-03T07:29:21.533Z,24.68
2022-09-03T07:31:51.978Z,24.69
2022-09-03T07:34:25.542Z,24.96
2022-09-03T07:36:54.891Z,25.01
2022-09-03T07:39:22.401Z,25.12
2022-09-03T07:41:50.185Z,25.64
2022-09-03T07:44:20.105Z,25.79
2022-09-03T07:46:49.991Z,26.21
2022-09-03T07:49:17.294Z,26.79
2022-09-03T07:51:46.565Z,26.95
2022-09-03T07:54:14.221Z,27.12
2022-09-03T07:56:41.825Z,27.71
2022-09-03T07:59:09.764Z,27.90
2022-09-03T08:01:41.308Z,27.98
2022-09-03T08:04:10.923Z,28.27
2022-09-03T08:06:39.899Z,28.74
2022-09-03T08:09:18.372Z,31.67
2022-09-03T08:11:55.998Z,33.45
2022-09-03T08:14:34.520Z,33.79
2022-09-03T08:17:13.417Z,33.09
2022-09-03T08:19:52.166Z,32.69
2022-09-03T08:22:30.633Z,32.58
2022-09-03T08:25:10.051Z,32.25
2022-09-03T08:27:51.754Z,31.15
2022-09-03T08:30:29.883Z,30.59
2022-09-03T08:33:08.721Z,30.37
2022-09-03T08:35:56.415Z,31.23
2022-09-03T08:38:38.153Z,32.84
2022-09-03T08:58:21.733Z,44.69
2022-09-03T09:10:37.809Z,39.42
2022-09-03T09:21:37.133Z,35.98
2022-09-03T09:24:21.954Z,35.11
2022-09-03T09:26:55.994Z,34.96
2022-09-03T09:29:23.325Z,35.25
2022-09-03T09:31:50.756Z,34.84
2022-09-03T09:34:18.034Z,33.92
2022-09-03T09:39:27.681Z,32.77
2022-09-03T09:42:09.593Z,32.52
2022-09-03T09:44:42.989Z,32.81
2022-09-03T09:47:39.633Z,32.81
2022-09-03T09:50:26.011Z,36.10
2022-09-03T09:53:14.289Z,39.18
2022-09-03T09:55:55.278Z,42.07
2022-09-03T09:58:28.377Z,43.34
2022-09-03T10:01:13.420Z,41.88
2022-09-03T10:03:55.466Z,40.26
2022-09-03T10:06:49.742Z,39.91
2022-09-03T10:09:31.199Z,38.98
2022-09-03T10:12:35.674Z,39.02
2022-09-03T10:28:33.301Z,34.53
2022-09-03T10:40:31.599Z,34.01
2022-09-03T10:46:28.234Z,33.87
2022-09-03T10:55:55.856Z,32.30
2022-09-03T11:05:39.215Z,32.18
2022-09-03T11:10:54.881Z,32.39
2022-09-03T11:16:18.278Z,33.06
2022-09-03T11:18:57.916Z,33.43
2022-09-03T11:21:30.563Z,33.42
2022-09-03T11:35:41.860Z,31.27
2022-09-03T11:38:27.317Z,30.99
2022-09-03T11:41:12.003Z,30.78
2022-09-03T11:43:40.161Z,30.59
2022-09-03T11:48:52.233Z,30.47
2022-09-03T11:56:35.999Z,30.32
2022-09-03T12:04:40.265Z,29.59
2022-09-03T12:10:59.202Z,27.92
2022-09-03T12:19:16.005Z,25.86
2022-09-03T12:21:49.771Z,25.68
2022-09-03T12:24:20.200Z,25.26
2022-09-03T12:26:47.817Z,25.26
2022-09-03T12:29:56.148Z,22.28
2022-09-03T12:32:24.789Z,21.27
2022-09-03T12:34:53.778Z,20.96
2022-09-03T12:40:32.407Z,20.48
2022-09-03T12:46:10.426Z,20.11
2022-09-03T12:48:40.510Z,20.10
2022-09-03T12:54:00.444Z,19.98
2022-09-03T12:56:32.262Z,19.77
2022-09-03T12:59:10.958Z,19.42
2022-09-03T13:01:52.357Z,19.57
2022-09-03T13:04:32.648Z,19.38
2022-09-03T13:09:42.088Z,20.04
2022-09-03T13:12:33.791Z,20.27
2022-09-03T13:15:11.180Z,20.11
2022-09-03T13:41:56.240Z,20.58
2022-09-03T13:50:22.217Z,21.25
2022-09-03T13:53:29.272Z,20.85
2022-09-03T13:56:16.569Z,21.19
2022-09-03T13:58:56.590Z,21.42
2022-09-03T14:20:44.502Z,24.14
2022-09-03T14:26:39.016Z,23.47
2022-09-03T14:38:16.222Z,24.35
2022-09-03T14:55:57.981Z,24.98
2022-09-03T15:01:23.792Z,24.43
2022-09-03T15:04:38.417Z,24.37
2022-09-03T15:13:14.711Z,25.55
2022-09-03T15:29:58.898Z,28.74
2022-09-03T15:40:43.103Z,28.22
2022-09-03T15:51:50.782Z,28.27
2022-09-03T15:57:54.763Z,28.41
2022-09-03T16:00:23.064Z,28.40
2022-09-03T16:03:10.876Z,28.13
2022-09-03T16:05:57.234Z,27.32
2022-09-03T16:08:46.413Z,27.06
2022-09-03T16:11:37.791Z,27.03
2022-09-03T16:14:41.622Z,26.61
2022-09-03T16:17:46.656Z,26.84
2022-09-03T16:23:08.049Z,26.83
2022-09-03T16:25:59.199Z,26.58
2022-09-03T16:28:54.040Z,26.41
2022-09-03T16:44:10.494Z,25.65
2022-09-03T17:00:38.104Z,25.89
2022-09-03T17:07:05.166Z,25.82
2022-09-03T17:35:22.504Z,24.41
2022-09-03T17:50:28.381Z,23.70
2022-09-03T17:53:09.522Z,23.68
2022-09-03T17:55:53.552Z,23.75
2022-09-03T18:01:27.278Z,23.24
2022-09-03T18:07:09.851Z,22.69
2022-09-03T18:15:29.972Z,23.01
2022-09-03T18:18:20.432Z,23.01
2022-09-03T18:21:29.247Z,23.04
2022-09-03T18:27:13.049Z,22.70
2022-09-03T18:30:14.361Z,22.72
2022-09-03T18:33:07.240Z,22.52
2022-09-03T18:35:55.681Z,22.50
2022-09-03T18:38:50.528Z,22.28
2022-09-03T18:53:26.434Z,22.22
2022-09-03T18:56:55.049Z,22.20
2022-09-03T19:00:37.286Z,21.99
2022-09-03T19:04:24.474Z,21.75
2022-09-03T19:15:44.577Z,21.25
2022-09-03T19:24:02.458Z,21.22
2022-09-03T19:30:03.623Z,21.67
2022-09-03T19:36:02.968Z,21.20
2022-09-03T19:39:29.577Z,21.42
2022-09-03T19:45:35.894Z,20.90
2022-09-03T19:49:10.209Z,20.67
2022-09-03T19:54:47.636Z,20.43
2022-09-03T19:57:39.071Z,20.73
2022-09-03T20:00:32.476Z,20.71
2022-09-03T20:03:25.207Z,20.75
2022-09-03T20:06:13.668Z,20.70
2022-09-03T20:09:00.885Z,20.78
2022-09-03T20:11:31.083Z,21.01
2022-09-03T20:14:16.651Z,20.55
2022-09-03T20:17:35.385Z,20.26
2022-09-03T20:20:25.051Z,20.34
2022-09-03T20:23:12.880Z,20.41
2022-09-03T20:26:36.004Z,20.28
2022-09-03T20:56:11.351Z,20.46
2022-09-03T21:24:31.051Z,20.08
2022-09-03T21:27:10.157Z,20.16
2022-09-03T21:32:24.141Z,20.26
2022-09-03T21:37:59.530Z,20.35
2022-09-03T21:40:33.306Z,20.43
2022-09-03T21:43:17.804Z,20.48
2022-09-03T21:46:00.247Z,20.30
2022-09-03T21:51:18.972Z,20.06
2022-09-03T22:05:03.642Z,20.82
2022-09-03T22:20:32.053Z,20.61
2022-09-03T22:23:21.090Z,20.68
2022-09-03T22:35:10.961Z,20.89
2022-09-03T22:46:17.549Z,19.97
2022-09-03T22:51:22.082Z,20.00
2022-09-03T22:56:41.860Z,20.31
2022-09-03T23:05:35.111Z,20.13
2022-09-03T23:08:18.259Z,19.97
2022-09-03T23:14:06.949Z,20.12
2022-09-03T23:17:07.375Z,20.14
2022-09-03T23:19:46.947Z,20.04
2022-09-03T23:22:35.580Z,19.93
2022-09-03T23:25:21.443Z,19.96
2022-09-03T23:30:28.600Z,19.78
2022-09-03T23:32:59.793Z,19.81
2022-09-03T23:35:38.097Z,19.87
2022-09-03T23:41:15.412Z,19.77
2022-09-03T23:55:18.189Z,19.21
